Argusville, North Dakota
Current Conditions -  °F | °C
As of 10:53 PM on Sunday 21 Dec 2014 (Local Time) from KFAR Reporting Station
Haze Haze  
Wind Chill: -2°   Ceiling: 500
Heat Index:   Visibility: 3mi
Dew Point:   Wind: 10mph
Humidity: 93%   Direction: 140°SE
Pressure: 29.55"   Gusts: NA
Location:  47.05°N, 96.93°W
Report Text: KFAR 220453Z 14009KT 3SM BR OVC005 02/01 A2955 RMK AO2 SLP015 T00220011
Loading
Personal Weather Stations






























Interactive Weather Map New forecast layout! Learn more

10-Day Weather Forecast

Advertisements
Track Severe Weather on mobile